Elderslie, United Kingdom
Current Conditions -  °F | °C
As of 3:50 AM on Thursday 29 Jan 2015 (Local Time) from EGPF Reporting Station
Light Snow Light Snow  
Wind Chill: 29°   Ceiling: 2900
Heat Index: 36°   Visibility: 6mi
Dew Point: 30°   Wind: 9mph
Humidity: 81%   Direction: 300°WNW
Pressure: 28.97"   Gusts: 21mph
Location:  55.83°N, 4.49°W
Report Text: EGPF 290350Z AUTO 30008G18KT 9999 -RASN SCT020/// BKN029/// //////CB 02/M01 Q0981
Loading
Personal Weather Stations






























Interactive Weather Map New forecast layout! Learn more

10-Day Weather Forecast

Advertisements
Track Severe Weather on mobile